Terminal Aerodrome Forecast
Issued by NWS Cleveland, OH

Home | Current Version | Previous Version | Graphics & Text | Print | Product List | Glossary Off
Versions: 1 2 3 4 5 6 7 8 9 10 11 12 13 14 15 16 17 18 19 20 21 22 23 24 25 26 27 28 29

262
FTUS41 KCLE 250915 AAB
TAFCLE
TAF AMD
KCLE 250915Z 2509/2612 25014KT P6SM VCSH OVC025
     FM251100 25012KT P6SM SCT025 BKN080
     FM251400 25015G25KT P6SM BKN025
     FM251700 25020G30KT 6SM -SHSN OVC020
     FM260100 27015G22KT P6SM BKN020=

USA.gov is the U.S. government's official web portal to all federal, state and local government web resources and services.